sensor_id;sensor_type;location;lat;lon;timestamp;temperature;humidity
38428;DHT22;24211;49.980;19.776;2023-04-03T00:01:21;5.40;99.90
38428;DHT22;24211;49.980;19.776;2023-04-03T00:03:48;5.40;99.90
38428;DHT22;24211;49.980;19.776;2023-04-03T00:06:17;5.50;99.90
38428;DHT22;24211;49.980;19.776;2023-04-03T00:08:44;5.50;99.90
38428;DHT22;24211;49.980;19.776;2023-04-03T00:11:12;5.50;99.90
38428;DHT22;24211;49.980;19.776;2023-04-03T00:13:39;5.50;99.90
38428;DHT22;24211;49.980;19.776;2023-04-03T00:16:08;5.60;99.90
38428;DHT22;24211;49.980;19.776;2023-04-03T00:18:37;5.50;99.90
38428;DHT22;24211;49.980;19.776;2023-04-03T00:21:07;5.50;99.90
38428;DHT22;24211;49.980;19.776;2023-04-03T00:23:36;5.50;99.90
38428;DHT22;24211;49.980;19.776;2023-04-03T00:26:04;5.60;99.90
38428;DHT22;24211;49.980;19.776;2023-04-03T00:28:31;5.60;99.90
38428;DHT22;24211;49.980;19.776;2023-04-03T00:30:58;5.50;99.90
38428;DHT22;24211;49.980;19.776;2023-04-03T00:33:30;5.50;99.90
38428;DHT22;24211;49.980;19.776;2023-04-03T00:35:57;5.50;99.90
38428;DHT22;24211;49.980;19.776;2023-04-03T00:38:25;5.50;99.90
38428;DHT22;24211;49.980;19.776;2023-04-03T00:40:52;5.50;99.90
38428;DHT22;24211;49.980;19.776;2023-04-03T00:43:24;5.50;99.90
38428;DHT22;24211;49.980;19.776;2023-04-03T00:45:55;5.40;99.90
38428;DHT22;24211;49.980;19.776;2023-04-03T00:48:26;5.40;99.90
38428;DHT22;24211;49.980;19.776;2023-04-03T00:50:54;5.40;99.90
38428;DHT22;24211;49.980;19.776;2023-04-03T00:53:32;5.50;99.90
38428;DHT22;24211;49.980;19.776;2023-04-03T00:56:06;5.40;99.90
38428;DHT22;24211;49.980;19.776;2023-04-03T00:58:58;5.50;99.90
38428;DHT22;24211;49.980;19.776;2023-04-03T01:01:32;5.40;99.90
38428;DHT22;24211;49.980;19.776;2023-04-03T01:04:03;5.40;99.90
38428;DHT22;24211;49.980;19.776;2023-04-03T01:06:36;5.30;99.90
38428;DHT22;24211;49.980;19.776;2023-04-03T01:09:07;5.10;99.90
38428;DHT22;24211;49.980;19.776;2023-04-03T01:11:34;4.90;99.90
38428;DHT22;24211;49.980;19.776;2023-04-03T01:14:02;5.00;99.90
38428;DHT22;24211;49.980;19.776;2023-04-03T01:16:30;4.80;99.90
38428;DHT22;24211;49.980;19.776;2023-04-03T01:18:59;4.90;99.90
38428;DHT22;24211;49.980;19.776;2023-04-03T01:27:09;4.90;99.90
38428;DHT22;24211;49.980;19.776;2023-04-03T01:29:37;4.80;99.90
38428;DHT22;24211;49.980;19.776;2023-04-03T01:32:07;4.70;99.90
38428;DHT22;24211;49.980;19.776;2023-04-03T01:34:34;4.80;99.90
38428;DHT22;24211;49.980;19.776;2023-04-03T01:37:02;4.80;99.90
38428;DHT22;24211;49.980;19.776;2023-04-03T01:39:29;4.90;99.90
38428;DHT22;24211;49.980;19.776;2023-04-03T01:41:57;5.00;99.90
38428;DHT22;24211;49.980;19.776;2023-04-03T01:44:30;4.90;99.90
38428;DHT22;24211;49.980;19.776;2023-04-03T01:46:57;4.90;99.90
38428;DHT22;24211;49.980;19.776;2023-04-03T01:49:28;4.90;99.90
38428;DHT22;24211;49.980;19.776;2023-04-03T01:51:56;5.00;99.90
38428;DHT22;24211;49.980;19.776;2023-04-03T01:54:23;5.00;99.90
38428;DHT22;24211;49.980;19.776;2023-04-03T01:56:51;5.00;99.90
38428;DHT22;24211;49.980;19.776;2023-04-03T01:59:20;5.00;99.90
38428;DHT22;24211;49.980;19.776;2023-04-03T02:01:47;5.00;99.90
38428;DHT22;24211;49.980;19.776;2023-04-03T02:04:14;5.10;99.90
38428;DHT22;24211;49.980;19.776;2023-04-03T02:06:42;5.00;99.90
38428;DHT22;24211;49.980;19.776;2023-04-03T02:09:09;5.00;99.90
38428;DHT22;24211;49.980;19.776;2023-04-03T02:11:37;5.00;99.90
38428;DHT22;24211;49.980;19.776;2023-04-03T02:14:04;5.10;99.90
38428;DHT22;24211;49.980;19.776;2023-04-03T02:16:32;5.00;99.90
38428;DHT22;24211;49.980;19.776;2023-04-03T02:18:59;5.00;99.90
38428;DHT22;24211;49.980;19.776;2023-04-03T02:21:27;5.00;99.90
38428;DHT22;24211;49.980;19.776;2023-04-03T02:23:54;5.00;99.90
38428;DHT22;24211;49.980;19.776;2023-04-03T02:26:23;4.90;99.90
38428;DHT22;24211;49.980;19.776;2023-04-03T02:28:50;4.90;99.90
38428;DHT22;24211;49.980;19.776;2023-04-03T02:31:18;4.80;99.90
38428;DHT22;24211;49.980;19.776;2023-04-03T02:33:46;4.90;99.90
38428;DHT22;24211;49.980;19.776;2023-04-03T02:36:15;4.80;99.90
38428;DHT22;24211;49.980;19.776;2023-04-03T02:38:48;4.80;99.90
38428;DHT22;24211;49.980;19.776;2023-04-03T02:41:16;4.90;99.90
38428;DHT22;24211;49.980;19.776;2023-04-03T02:43:43;4.80;99.90
38428;DHT22;24211;49.980;19.776;2023-04-03T02:46:11;4.80;99.90
38428;DHT22;24211;49.980;19.776;2023-04-03T02:48:38;4.80;99.90
38428;DHT22;24211;49.980;19.776;2023-04-03T02:51:05;4.80;99.90
38428;DHT22;24211;49.980;19.776;2023-04-03T02:53:33;4.80;99.90
38428;DHT22;24211;49.980;19.776;2023-04-03T02:56:07;4.80;99.90
38428;DHT22;24211;49.980;19.776;2023-04-03T02:58:34;4.80;99.90
38428;DHT22;24211;49.980;19.776;2023-04-03T03:01:07;4.80;99.90
38428;DHT22;24211;49.980;19.776;2023-04-03T03:03:34;4.80;99.90
38428;DHT22;24211;49.980;19.776;2023-04-03T03:06:06;4.70;99.90
38428;DHT22;24211;49.980;19.776;2023-04-03T03:08:36;4.70;99.90
38428;DHT22;24211;49.980;19.776;2023-04-03T03:11:04;4.70;99.90
38428;DHT22;24211;49.980;19.776;2023-04-03T03:13:33;4.60;99.90
38428;DHT22;24211;49.980;19.776;2023-04-03T03:16:01;4.50;99.90
38428;DHT22;24211;49.980;19.776;2023-04-03T03:18:29;4.40;99.90
38428;DHT22;24211;49.980;19.776;2023-04-03T03:20:59;4.40;99.90
38428;DHT22;24211;49.980;19.776;2023-04-03T03:23:29;4.40;99.90
38428;DHT22;24211;49.980;19.776;2023-04-03T03:26:01;4.50;99.90
38428;DHT22;24211;49.980;19.776;2023-04-03T03:28:31;4.60;99.90
38428;DHT22;24211;49.980;19.776;2023-04-03T03:30:59;4.60;99.90
38428;DHT22;24211;49.980;19.776;2023-04-03T03:33:29;4.70;99.90
38428;DHT22;24211;49.980;19.776;2023-04-03T03:35:56;4.70;99.90
38428;DHT22;24211;49.980;19.776;2023-04-03T03:38:24;4.70;99.90
38428;DHT22;24211;49.980;19.776;2023-04-03T03:40:52;4.70;99.90
38428;DHT22;24211;49.980;19.776;2023-04-03T03:43:21;4.70;99.90
38428;DHT22;24211;49.980;19.776;2023-04-03T03:45:51;4.70;99.90
38428;DHT22;24211;49.980;19.776;2023-04-03T03:48:22;4.70;99.90
38428;DHT22;24211;49.980;19.776;2023-04-03T03:50:49;4.70;99.90
38428;DHT22;24211;49.980;19.776;2023-04-03T03:53:19;4.70;99.90
38428;DHT22;24211;49.980;19.776;2023-04-03T03:55:49;4.70;99.90
38428;DHT22;24211;49.980;19.776;2023-04-03T03:58:16;4.70;99.90
38428;DHT22;24211;49.980;19.776;2023-04-03T04:00:44;4.70;99.90
38428;DHT22;24211;49.980;19.776;2023-04-03T04:03:11;4.70;99.90
38428;DHT22;24211;49.980;19.776;2023-04-03T04:05:40;4.60;99.90
38428;DHT22;24211;49.980;19.776;2023-04-03T04:08:07;4.60;99.90
38428;DHT22;24211;49.980;19.776;2023-04-03T04:10:35;4.70;99.90
38428;DHT22;24211;49.980;19.776;2023-04-03T04:13:05;4.60;99.90
38428;DHT22;24211;49.980;19.776;2023-04-03T04:15:33;4.60;99.90
38428;DHT22;24211;49.980;19.776;2023-04-03T04:18:02;4.60;99.90
38428;DHT22;24211;49.980;19.776;2023-04-03T04:20:31;4.60;99.90
38428;DHT22;24211;49.980;19.776;2023-04-03T04:22:59;4.50;99.90
38428;DHT22;24211;49.980;19.776;2023-04-03T04:25:28;4.50;99.90
38428;DHT22;24211;49.980;19.776;2023-04-03T04:27:55;4.50;99.90
38428;DHT22;24211;49.980;19.776;2023-04-03T04:30:22;4.40;99.90
38428;DHT22;24211;49.980;19.776;2023-04-03T04:32:50;4.30;99.90
38428;DHT22;24211;49.980;19.776;2023-04-03T04:35:18;4.20;99.90
38428;DHT22;24211;49.980;19.776;2023-04-03T04:37:48;4.10;99.90
38428;DHT22;24211;49.980;19.776;2023-04-03T04:40:16;4.00;99.90
38428;DHT22;24211;49.980;19.776;2023-04-03T04:42:43;3.90;99.90
38428;DHT22;24211;49.980;19.776;2023-04-03T04:45:11;4.00;99.90
38428;DHT22;24211;49.980;19.776;2023-04-03T04:47:41;4.10;99.90
38428;DHT22;24211;49.980;19.776;2023-04-03T04:50:10;4.00;99.90
38428;DHT22;24211;49.980;19.776;2023-04-03T04:52:38;4.10;99.90
38428;DHT22;24211;49.980;19.776;2023-04-03T04:55:07;4.00;99.90
38428;DHT22;24211;49.980;19.776;2023-04-03T04:57:35;4.10;99.90
38428;DHT22;24211;49.980;19.776;2023-04-03T05:00:04;4.10;99.90
38428;DHT22;24211;49.980;19.776;2023-04-03T05:02:32;4.10;99.90
38428;DHT22;24211;49.980;19.776;2023-04-03T05:05:01;4.10;99.90
38428;DHT22;24211;49.980;19.776;2023-04-03T05:07:33;4.20;99.90
38428;DHT22;24211;49.980;19.776;2023-04-03T05:10:02;4.20;99.90
38428;DHT22;24211;49.980;19.776;2023-04-03T05:12:32;4.30;99.90
38428;DHT22;24211;49.980;19.776;2023-04-03T05:15:02;4.30;99.90
38428;DHT22;24211;49.980;19.776;2023-04-03T05:17:31;4.40;99.90
38428;DHT22;24211;49.980;19.776;2023-04-03T05:19:59;4.40;99.90
38428;DHT22;24211;49.980;19.776;2023-04-03T05:22:27;4.40;99.90
38428;DHT22;24211;49.980;19.776;2023-04-03T05:25:01;4.40;99.90
38428;DHT22;24211;49.980;19.776;2023-04-03T05:27:29;4.40;99.90
38428;DHT22;24211;49.980;19.776;2023-04-03T05:29:58;4.50;99.90
38428;DHT22;24211;49.980;19.776;2023-04-03T05:32:26;4.40;99.90
38428;DHT22;24211;49.980;19.776;2023-04-03T05:35:12;4.40;99.90
38428;DHT22;24211;49.980;19.776;2023-04-03T05:37:41;4.20;99.90
38428;DHT22;24211;49.980;19.776;2023-04-03T05:40:10;4.10;99.90
38428;DHT22;24211;49.980;19.776;2023-04-03T05:42:41;4.20;99.90
38428;DHT22;24211;49.980;19.776;2023-04-03T05:45:09;4.20;99.90
38428;DHT22;24211;49.980;19.776;2023-04-03T05:47:36;4.20;99.90
38428;DHT22;24211;49.980;19.776;2023-04-03T05:50:07;4.10;99.90
38428;DHT22;24211;49.980;19.776;2023-04-03T05:52:40;4.00;99.90
38428;DHT22;24211;49.980;19.776;2023-04-03T05:55:13;3.80;99.90
38428;DHT22;24211;49.980;19.776;2023-04-03T05:57:40;3.60;99.90
38428;DHT22;24211;49.980;19.776;2023-04-03T06:00:11;3.60;99.90
38428;DHT22;24211;49.980;19.776;2023-04-03T06:02:42;3.70;99.90
38428;DHT22;24211;49.980;19.776;2023-04-03T06:05:17;3.70;99.90
38428;DHT22;24211;49.980;19.776;2023-04-03T06:07:45;3.60;99.90
38428;DHT22;24211;49.980;19.776;2023-04-03T06:10:13;3.50;99.90
38428;DHT22;24211;49.980;19.776;2023-04-03T06:12:40;3.70;99.90
38428;DHT22;24211;49.980;19.776;2023-04-03T06:15:08;3.70;99.90
38428;DHT22;24211;49.980;19.776;2023-04-03T06:17:39;3.80;99.90
38428;DHT22;24211;49.980;19.776;2023-04-03T06:20:08;3.90;99.90
38428;DHT22;24211;49.980;19.776;2023-04-03T06:22:36;3.90;99.90
38428;DHT22;24211;49.980;19.776;2023-04-03T06:25:04;3.80;99.90
38428;DHT22;24211;49.980;19.776;2023-04-03T06:27:33;3.50;99.90
38428;DHT22;24211;49.980;19.776;2023-04-03T06:30:00;3.60;99.90
38428;DHT22;24211;49.980;19.776;2023-04-03T06:32:27;3.70;99.90
38428;DHT22;24211;49.980;19.776;2023-04-03T06:34:55;3.50;99.90
38428;DHT22;24211;49.980;19.776;2023-04-03T06:37:24;3.70;99.90
38428;DHT22;24211;49.980;19.776;2023-04-03T06:39:53;3.70;99.90
38428;DHT22;24211;49.980;19.776;2023-04-03T06:42:20;3.40;99.90
38428;DHT22;24211;49.980;19.776;2023-04-03T06:44:57;3.40;99.90
38428;DHT22;24211;49.980;19.776;2023-04-03T06:47:24;3.60;99.90
38428;DHT22;24211;49.980;19.776;2023-04-03T06:49:52;3.60;99.90
38428;DHT22;24211;49.980;19.776;2023-04-03T06:52:19;3.70;99.90
38428;DHT22;24211;49.980;19.776;2023-04-03T06:54:47;3.70;99.90
38428;DHT22;24211;49.980;19.776;2023-04-03T06:57:14;3.80;99.90
38428;DHT22;24211;49.980;19.776;2023-04-03T06:59:42;3.70;99.90
38428;DHT22;24211;49.980;19.776;2023-04-03T07:02:11;3.60;99.90
38428;DHT22;24211;49.980;19.776;2023-04-03T07:04:39;3.50;99.90
38428;DHT22;24211;49.980;19.776;2023-04-03T07:07:07;3.20;99.90
38428;DHT22;24211;49.980;19.776;2023-04-03T07:09:34;3.40;99.90
38428;DHT22;24211;49.980;19.776;2023-04-03T07:12:02;3.50;99.90
38428;DHT22;24211;49.980;19.776;2023-04-03T07:14:29;3.40;99.90
38428;DHT22;24211;49.980;19.776;2023-04-03T07:16:56;3.40;99.90
38428;DHT22;24211;49.980;19.776;2023-04-03T07:19:24;3.70;99.90
38428;DHT22;24211;49.980;19.776;2023-04-03T07:21:54;3.50;99.90
38428;DHT22;24211;49.980;19.776;2023-04-03T07:24:22;3.80;99.90
38428;DHT22;24211;49.980;19.776;2023-04-03T07:26:50;3.80;99.90
38428;DHT22;24211;49.980;19.776;2023-04-03T07:29:19;4.00;99.90
38428;DHT22;24211;49.980;19.776;2023-04-03T07:31:48;4.20;99.90
38428;DHT22;24211;49.980;19.776;2023-04-03T07:34:16;4.20;99.90
38428;DHT22;24211;49.980;19.776;2023-04-03T07:36:43;4.20;99.90
38428;DHT22;24211;49.980;19.776;2023-04-03T07:39:10;4.20;99.90
38428;DHT22;24211;49.980;19.776;2023-04-03T07:41:38;4.40;99.90
38428;DHT22;24211;49.980;19.776;2023-04-03T07:44:05;4.50;99.90
38428;DHT22;24211;49.980;19.776;2023-04-03T07:46:32;4.50;99.90
38428;DHT22;24211;49.980;19.776;2023-04-03T07:49:00;4.70;99.90
38428;DHT22;24211;49.980;19.776;2023-04-03T07:51:27;4.50;99.90
38428;DHT22;24211;49.980;19.776;2023-04-03T07:53:56;4.20;99.90
38428;DHT22;24211;49.980;19.776;2023-04-03T07:56:23;4.50;99.90
38428;DHT22;24211;49.980;19.776;2023-04-03T07:58:52;4.80;99.90
38428;DHT22;24211;49.980;19.776;2023-04-03T08:01:20;4.80;99.90
38428;DHT22;24211;49.980;19.776;2023-04-03T08:03:48;4.90;99.90
38428;DHT22;24211;49.980;19.776;2023-04-03T08:06:15;5.10;99.90
38428;DHT22;24211;49.980;19.776;2023-04-03T08:08:46;5.20;99.90
38428;DHT22;24211;49.980;19.776;2023-04-03T08:11:13;5.20;99.90
38428;DHT22;24211;49.980;19.776;2023-04-03T08:13:41;5.30;99.90
38428;DHT22;24211;49.980;19.776;2023-04-03T08:16:15;5.40;99.90
38428;DHT22;24211;49.980;19.776;2023-04-03T08:18:44;5.50;99.90
38428;DHT22;24211;49.980;19.776;2023-04-03T08:21:12;5.60;99.90
38428;DHT22;24211;49.980;19.776;2023-04-03T08:23:40;5.80;99.90
38428;DHT22;24211;49.980;19.776;2023-04-03T08:26:20;5.90;99.90
38428;DHT22;24211;49.980;19.776;2023-04-03T08:28:49;5.90;99.90
38428;DHT22;24211;49.980;19.776;2023-04-03T08:31:18;5.80;99.90
38428;DHT22;24211;49.980;19.776;2023-04-03T08:33:47;6.20;99.90
38428;DHT22;24211;49.980;19.776;2023-04-03T08:36:27;6.20;99.90
38428;DHT22;24211;49.980;19.776;2023-04-03T08:38:56;6.30;99.90
38428;DHT22;24211;49.980;19.776;2023-04-03T08:50:07;6.50;99.90
38428;DHT22;24211;49.980;19.776;2023-04-03T08:52:51;6.30;99.90
38428;DHT22;24211;49.980;19.776;2023-04-03T08:55:29;6.50;99.90
38428;DHT22;24211;49.980;19.776;2023-04-03T08:58:26;6.50;99.90
38428;DHT22;24211;49.980;19.776;2023-04-03T09:01:03;6.70;99.90
38428;DHT22;24211;49.980;19.776;2023-04-03T09:03:38;6.50;99.90
38428;DHT22;24211;49.980;19.776;2023-04-03T09:06:22;6.50;99.90
38428;DHT22;24211;49.980;19.776;2023-04-03T09:09:14;6.70;99.90
38428;DHT22;24211;49.980;19.776;2023-04-03T09:26:02;6.20;99.90
38428;DHT22;24211;49.980;19.776;2023-04-03T09:28:38;6.50;99.90
38428;DHT22;24211;49.980;19.776;2023-04-03T09:33:53;6.00;99.90
38428;DHT22;24211;49.980;19.776;2023-04-03T09:39:17;5.70;99.90
38428;DHT22;24211;49.980;19.776;2023-04-03T09:44:31;5.70;99.90
38428;DHT22;24211;49.980;19.776;2023-04-03T09:47:33;6.10;99.90
38428;DHT22;24211;49.980;19.776;2023-04-03T09:52:44;5.90;99.90
38428;DHT22;24211;49.980;19.776;2023-04-03T09:55:41;6.20;99.90
38428;DHT22;24211;49.980;19.776;2023-04-03T09:58:29;6.10;99.90
38428;DHT22;24211;49.980;19.776;2023-04-03T10:01:37;5.70;99.90
38428;DHT22;24211;49.980;19.776;2023-04-03T10:06:47;5.40;99.90
38428;DHT22;24211;49.980;19.776;2023-04-03T10:09:22;5.10;99.90
38428;DHT22;24211;49.980;19.776;2023-04-03T10:12:02;5.40;99.90
38428;DHT22;24211;49.980;19.776;2023-04-03T10:14:36;5.30;99.90
38428;DHT22;24211;49.980;19.776;2023-04-03T10:23:27;5.10;99.90
38428;DHT22;24211;49.980;19.776;2023-04-03T10:26:39;5.00;99.90
38428;DHT22;24211;49.980;19.776;2023-04-03T10:29:25;4.60;99.90
38428;DHT22;24211;49.980;19.776;2023-04-03T10:35:18;4.70;99.90
38428;DHT22;24211;49.980;19.776;2023-04-03T10:38:15;4.80;99.90
38428;DHT22;24211;49.980;19.776;2023-04-03T10:44:14;5.20;99.90
38428;DHT22;24211;49.980;19.776;2023-04-03T10:47:12;5.10;99.90
38428;DHT22;24211;49.980;19.776;2023-04-03T10:50:22;4.90;99.90
38428;DHT22;24211;49.980;19.776;2023-04-03T10:56:35;5.10;99.90
38428;DHT22;24211;49.980;19.776;2023-04-03T11:02:32;5.20;99.90
38428;DHT22;24211;49.980;19.776;2023-04-03T11:05:17;5.30;99.90
38428;DHT22;24211;49.980;19.776;2023-04-03T11:07:59;5.10;99.90
38428;DHT22;24211;49.980;19.776;2023-04-03T11:10:50;5.40;99.90
38428;DHT22;24211;49.980;19.776;2023-04-03T11:13:41;5.50;99.90
38428;DHT22;24211;49.980;19.776;2023-04-03T11:16:23;5.40;99.90
38428;DHT22;24211;49.980;19.776;2023-04-03T11:19:03;5.30;99.90
38428;DHT22;24211;49.980;19.776;2023-04-03T11:21:52;5.40;99.90
38428;DHT22;24211;49.980;19.776;2023-04-03T11:24:29;5.30;99.90
38428;DHT22;24211;49.980;19.776;2023-04-03T11:27:01;5.40;99.90
38428;DHT22;24211;49.980;19.776;2023-04-03T11:29:36;5.40;99.90
38428;DHT22;24211;49.980;19.776;2023-04-03T11:32:46;5.70;99.90
38428;DHT22;24211;49.980;19.776;2023-04-03T11:35:18;5.50;99.90
38428;DHT22;24211;49.980;19.776;2023-04-03T11:37:52;5.70;99.90
38428;DHT22;24211;49.980;19.776;2023-04-03T11:40:22;5.40;99.90
38428;DHT22;24211;49.980;19.776;2023-04-03T11:43:02;5.60;99.90
38428;DHT22;24211;49.980;19.776;2023-04-03T11:45:37;5.50;99.90
38428;DHT22;24211;49.980;19.776;2023-04-03T11:50:51;5.10;99.90
38428;DHT22;24211;49.980;19.776;2023-04-03T11:53:33;4.90;99.90
38428;DHT22;24211;49.980;19.776;2023-04-03T12:01:48;5.10;99.90
38428;DHT22;24211;49.980;19.776;2023-04-03T12:04:23;5.10;99.90
38428;DHT22;24211;49.980;19.776;2023-04-03T12:07:21;5.10;99.90
38428;DHT22;24211;49.980;19.776;2023-04-03T12:12:32;4.90;99.90
38428;DHT22;24211;49.980;19.776;2023-04-03T12:15:50;5.00;99.90
38428;DHT22;24211;49.980;19.776;2023-04-03T12:18:41;4.90;99.90
38428;DHT22;24211;49.980;19.776;2023-04-03T12:21:12;5.10;99.90
38428;DHT22;24211;49.980;19.776;2023-04-03T12:35:29;5.80;99.90
38428;DHT22;24211;49.980;19.776;2023-04-03T12:41:21;6.20;99.90
38428;DHT22;24211;49.980;19.776;2023-04-03T12:47:00;6.20;99.90
38428;DHT22;24211;49.980;19.776;2023-04-03T12:49:41;6.50;99.90
38428;DHT22;24211;49.980;19.776;2023-04-03T12:52:30;6.50;99.90
38428;DHT22;24211;49.980;19.776;2023-04-03T12:55:08;6.40;99.90
38428;DHT22;24211;49.980;19.776;2023-04-03T12:57:42;6.60;99.90
38428;DHT22;24211;49.980;19.776;2023-04-03T13:00:30;6.70;99.90
38428;DHT22;24211;49.980;19.776;2023-04-03T13:03:03;6.60;99.90
38428;DHT22;24211;49.980;19.776;2023-04-03T13:05:33;6.60;99.90
38428;DHT22;24211;49.980;19.776;2023-04-03T13:08:05;6.70;99.90
38428;DHT22;24211;49.980;19.776;2023-04-03T13:10:54;6.50;99.90
38428;DHT22;24211;49.980;19.776;2023-04-03T13:13:24;6.30;99.90
38428;DHT22;24211;49.980;19.776;2023-04-03T13:15:53;6.30;99.90
38428;DHT22;24211;49.980;19.776;2023-04-03T13:18:27;6.40;99.90
38428;DHT22;24211;49.980;19.776;2023-04-03T13:21:05;6.50;99.90
38428;DHT22;24211;49.980;19.776;2023-04-03T13:23:44;6.70;99.90
38428;DHT22;24211;49.980;19.776;2023-04-03T13:26:19;6.50;99.90
38428;DHT22;24211;49.980;19.776;2023-04-03T13:28:48;6.60;99.90
38428;DHT22;24211;49.980;19.776;2023-04-03T13:31:25;6.50;99.90
38428;DHT22;24211;49.980;19.776;2023-04-03T13:34:07;6.60;99.90
38428;DHT22;24211;49.980;19.776;2023-04-03T13:37:05;6.50;99.90
38428;DHT22;24211;49.980;19.776;2023-04-03T13:39:37;6.30;99.90
38428;DHT22;24211;49.980;19.776;2023-04-03T13:42:25;6.40;99.90
38428;DHT22;24211;49.980;19.776;2023-04-03T13:47:52;6.30;99.90
38428;DHT22;24211;49.980;19.776;2023-04-03T13:50:25;6.20;99.90
38428;DHT22;24211;49.980;19.776;2023-04-03T13:52:55;6.60;99.90
38428;DHT22;24211;49.980;19.776;2023-04-03T13:55:35;6.50;99.90
38428;DHT22;24211;49.980;19.776;2023-04-03T13:58:30;6.90;99.90
38428;DHT22;24211;49.980;19.776;2023-04-03T14:03:56;7.50;99.90
38428;DHT22;24211;49.980;19.776;2023-04-03T14:06:27;7.60;99.90
38428;DHT22;24211;49.980;19.776;2023-04-03T14:08:54;7.60;99.90
38428;DHT22;24211;49.980;19.776;2023-04-03T14:11:28;8.00;99.90
38428;DHT22;24211;49.980;19.776;2023-04-03T14:14:01;8.00;99.90
38428;DHT22;24211;49.980;19.776;2023-04-03T14:16:37;7.80;99.90
38428;DHT22;24211;49.980;19.776;2023-04-03T14:19:23;7.70;99.90
38428;DHT22;24211;49.980;19.776;2023-04-03T14:21:55;7.40;99.90
38428;DHT22;24211;49.980;19.776;2023-04-03T14:24:24;7.00;99.90
38428;DHT22;24211;49.980;19.776;2023-04-03T14:26:53;6.70;99.90
38428;DHT22;24211;49.980;19.776;2023-04-03T14:29:22;6.70;99.90
38428;DHT22;24211;49.980;19.776;2023-04-03T14:31:50;6.90;99.90
38428;DHT22;24211;49.980;19.776;2023-04-03T14:34:33;6.90;99.90
38428;DHT22;24211;49.980;19.776;2023-04-03T14:37:01;6.80;99.90
38428;DHT22;24211;49.980;19.776;2023-04-03T14:39:28;6.50;99.90
38428;DHT22;24211;49.980;19.776;2023-04-03T14:41:56;6.20;99.90
38428;DHT22;24211;49.980;19.776;2023-04-03T14:44:24;6.30;99.90
38428;DHT22;24211;49.980;19.776;2023-04-03T14:46:51;6.30;99.90
38428;DHT22;24211;49.980;19.776;2023-04-03T14:49:28;6.70;99.90
38428;DHT22;24211;49.980;19.776;2023-04-03T14:51:57;6.80;99.90
38428;DHT22;24211;49.980;19.776;2023-04-03T14:54:26;7.00;99.90
38428;DHT22;24211;49.980;19.776;2023-04-03T14:56:56;6.60;99.90
38428;DHT22;24211;49.980;19.776;2023-04-03T14:59:27;6.50;99.90
38428;DHT22;24211;49.980;19.776;2023-04-03T15:01:55;6.50;99.90
38428;DHT22;24211;49.980;19.776;2023-04-03T15:04:23;6.80;99.90
38428;DHT22;24211;49.980;19.776;2023-04-03T15:06:51;6.80;99.90
38428;DHT22;24211;49.980;19.776;2023-04-03T15:09:24;6.50;99.90
38428;DHT22;24211;49.980;19.776;2023-04-03T15:11:54;6.30;99.90
38428;DHT22;24211;49.980;19.776;2023-04-03T15:14:22;6.10;99.90
38428;DHT22;24211;49.980;19.776;2023-04-03T15:17:04;6.00;99.90
38428;DHT22;24211;49.980;19.776;2023-04-03T15:19:37;6.20;99.90
38428;DHT22;24211;49.980;19.776;2023-04-03T15:22:06;6.10;99.90
38428;DHT22;24211;49.980;19.776;2023-04-03T15:24:33;5.70;99.90
38428;DHT22;24211;49.980;19.776;2023-04-03T15:27:02;6.30;99.90
38428;DHT22;24211;49.980;19.776;2023-04-03T15:29:29;6.20;99.90
38428;DHT22;24211;49.980;19.776;2023-04-03T15:31:57;6.60;99.90
38428;DHT22;24211;49.980;19.776;2023-04-03T15:34:24;6.60;99.90
38428;DHT22;24211;49.980;19.776;2023-04-03T15:36:51;6.60;99.90
38428;DHT22;24211;49.980;19.776;2023-04-03T15:39:22;6.30;99.90
38428;DHT22;24211;49.980;19.776;2023-04-03T15:41:51;6.40;99.90
38428;DHT22;24211;49.980;19.776;2023-04-03T15:44:22;6.30;99.90
38428;DHT22;24211;49.980;19.776;2023-04-03T15:46:49;6.00;99.90
38428;DHT22;24211;49.980;19.776;2023-04-03T15:49:21;5.90;99.90
38428;DHT22;24211;49.980;19.776;2023-04-03T15:51:48;6.00;99.90
38428;DHT22;24211;49.980;19.776;2023-04-03T15:54:16;6.00;99.90
38428;DHT22;24211;49.980;19.776;2023-04-03T15:56:44;5.80;99.90
38428;DHT22;24211;49.980;19.776;2023-04-03T15:59:12;5.80;99.90
38428;DHT22;24211;49.980;19.776;2023-04-03T16:01:39;5.50;99.90
38428;DHT22;24211;49.980;19.776;2023-04-03T16:04:08;5.70;99.90
38428;DHT22;24211;49.980;19.776;2023-04-03T16:06:37;5.70;99.90
38428;DHT22;24211;49.980;19.776;2023-04-03T16:09:06;5.70;99.90
38428;DHT22;24211;49.980;19.776;2023-04-03T16:11:34;5.70;99.90
38428;DHT22;24211;49.980;19.776;2023-04-03T16:14:03;5.60;99.90
38428;DHT22;24211;49.980;19.776;2023-04-03T16:16:30;5.30;99.90
38428;DHT22;24211;49.980;19.776;2023-04-03T16:18:57;5.20;99.90
38428;DHT22;24211;49.980;19.776;2023-04-03T16:21:26;5.00;99.90
38428;DHT22;24211;49.980;19.776;2023-04-03T16:23:56;5.00;99.90
38428;DHT22;24211;49.980;19.776;2023-04-03T16:26:26;5.10;99.90
38428;DHT22;24211;49.980;19.776;2023-04-03T16:28:54;5.20;99.90
38428;DHT22;24211;49.980;19.776;2023-04-03T16:31:22;5.10;99.90
38428;DHT22;24211;49.980;19.776;2023-04-03T16:33:51;5.20;99.90
38428;DHT22;24211;49.980;19.776;2023-04-03T16:36:19;5.40;99.90
38428;DHT22;24211;49.980;19.776;2023-04-03T16:38:46;5.50;99.90
38428;DHT22;24211;49.980;19.776;2023-04-03T16:41:14;5.50;99.90
38428;DHT22;24211;49.980;19.776;2023-04-03T16:43:41;5.50;99.90
38428;DHT22;24211;49.980;19.776;2023-04-03T16:46:13;5.60;99.90
38428;DHT22;24211;49.980;19.776;2023-04-03T16:48:41;5.40;99.90
38428;DHT22;24211;49.980;19.776;2023-04-03T16:51:08;5.40;99.90
38428;DHT22;24211;49.980;19.776;2023-04-03T16:53:37;5.40;99.90
38428;DHT22;24211;49.980;19.776;2023-04-03T16:56:04;5.50;99.90
38428;DHT22;24211;49.980;19.776;2023-04-03T16:58:32;5.50;99.90
38428;DHT22;24211;49.980;19.776;2023-04-03T17:01:15;5.50;99.90
38428;DHT22;24211;49.980;19.776;2023-04-03T17:03:44;5.50;99.90
38428;DHT22;24211;49.980;19.776;2023-04-03T17:06:38;5.50;99.90
38428;DHT22;24211;49.980;19.776;2023-04-03T17:09:07;5.50;99.90
38428;DHT22;24211;49.980;19.776;2023-04-03T17:11:36;5.60;99.90
38428;DHT22;24211;49.980;19.776;2023-04-03T17:14:03;5.50;99.90
38428;DHT22;24211;49.980;19.776;2023-04-03T17:16:33;5.20;99.90
38428;DHT22;24211;49.980;19.776;2023-04-03T17:19:02;5.00;99.90
38428;DHT22;24211;49.980;19.776;2023-04-03T17:21:31;4.80;99.90
38428;DHT22;24211;49.980;19.776;2023-04-03T17:24:03;4.90;99.90
38428;DHT22;24211;49.980;19.776;2023-04-03T17:26:35;4.80;99.90
38428;DHT22;24211;49.980;19.776;2023-04-03T17:29:05;5.00;99.90
38428;DHT22;24211;49.980;19.776;2023-04-03T17:31:33;5.10;99.90
38428;DHT22;24211;49.980;19.776;2023-04-03T17:34:06;5.10;99.90
38428;DHT22;24211;49.980;19.776;2023-04-03T17:36:33;5.20;99.90